Caballo, New Mexico
Current Conditions -  °F | °C
As of 7:53 PM on Tuesday 25 Nov 2014 (Local Time) from KTCS Reporting Station
Clear Clear  
Wind Chill: 42°   Ceiling: Unl
Heat Index: 44°   Visibility: 10mi
Dew Point:   Wind: 5mph
Humidity: 17%   Direction: 220°SW
Pressure: 30.27"   Gusts: NA
Location:  32.97°N, 107.31°W
Report Text: KTCS 260253Z AUTO 22004KT 10SM CLR 07/M17 A3027 RMK AO2 SLP239 T00671167 53003 TSNO
Loading
Personal Weather Stations






























Interactive Weather Map New forecast layout! Learn more

10-Day Weather Forecast

Advertisements
Track Severe Weather on mobile